sensor_id;sensor_type;location;lat;lon;timestamp;temperature;humidity
41256;DHT22;26989;45.524;10.938;2023-08-12T00:02:02;20.50;99.90
41256;DHT22;26989;45.524;10.938;2023-08-12T00:04:29;20.50;99.90
41256;DHT22;26989;45.524;10.938;2023-08-12T00:06:56;20.40;99.90
41256;DHT22;26989;45.524;10.938;2023-08-12T00:09:23;20.40;99.90
41256;DHT22;26989;45.524;10.938;2023-08-12T00:11:51;20.40;99.90
41256;DHT22;26989;45.524;10.938;2023-08-12T00:14:18;20.40;99.90
41256;DHT22;26989;45.524;10.938;2023-08-12T00:16:45;20.50;99.90
41256;DHT22;26989;45.524;10.938;2023-08-12T00:19:12;20.50;99.90
41256;DHT22;26989;45.524;10.938;2023-08-12T00:21:40;20.60;99.90
41256;DHT22;26989;45.524;10.938;2023-08-12T00:24:07;20.50;99.90
41256;DHT22;26989;45.524;10.938;2023-08-12T00:26:34;20.50;99.90
41256;DHT22;26989;45.524;10.938;2023-08-12T00:29:01;20.40;99.90
41256;DHT22;26989;45.524;10.938;2023-08-12T00:31:27;20.20;99.90
41256;DHT22;26989;45.524;10.938;2023-08-12T00:33:54;20.20;99.90
41256;DHT22;26989;45.524;10.938;2023-08-12T00:36:21;20.20;99.90
41256;DHT22;26989;45.524;10.938;2023-08-12T00:38:48;20.10;99.90
41256;DHT22;26989;45.524;10.938;2023-08-12T00:41:16;20.20;99.90
41256;DHT22;26989;45.524;10.938;2023-08-12T00:43:43;20.10;99.90
41256;DHT22;26989;45.524;10.938;2023-08-12T00:46:10;20.20;99.90
41256;DHT22;26989;45.524;10.938;2023-08-12T00:48:37;20.20;99.90
41256;DHT22;26989;45.524;10.938;2023-08-12T00:51:04;20.30;99.90
41256;DHT22;26989;45.524;10.938;2023-08-12T00:53:31;20.50;99.90
41256;DHT22;26989;45.524;10.938;2023-08-12T00:55:58;20.60;99.90
41256;DHT22;26989;45.524;10.938;2023-08-12T00:58:25;20.60;99.90
41256;DHT22;26989;45.524;10.938;2023-08-12T01:00:51;20.50;99.90
41256;DHT22;26989;45.524;10.938;2023-08-12T01:03:18;20.40;99.90
41256;DHT22;26989;45.524;10.938;2023-08-12T01:05:46;20.40;99.90
41256;DHT22;26989;45.524;10.938;2023-08-12T01:08:13;20.40;99.90
41256;DHT22;26989;45.524;10.938;2023-08-12T01:10:46;20.40;99.90
41256;DHT22;26989;45.524;10.938;2023-08-12T01:13:39;20.50;99.90
41256;DHT22;26989;45.524;10.938;2023-08-12T01:16:11;20.60;99.90
41256;DHT22;26989;45.524;10.938;2023-08-12T01:18:40;20.60;99.90
41256;DHT22;26989;45.524;10.938;2023-08-12T01:21:10;20.60;99.90
41256;DHT22;26989;45.524;10.938;2023-08-12T01:23:39;20.60;99.90
41256;DHT22;26989;45.524;10.938;2023-08-12T01:26:06;20.60;99.90
41256;DHT22;26989;45.524;10.938;2023-08-12T01:28:33;20.60;99.90
41256;DHT22;26989;45.524;10.938;2023-08-12T01:31:08;20.50;99.90
41256;DHT22;26989;45.524;10.938;2023-08-12T01:34:02;20.50;99.90
41256;DHT22;26989;45.524;10.938;2023-08-12T01:36:32;20.60;99.90
41256;DHT22;26989;45.524;10.938;2023-08-12T01:39:00;20.70;99.90
41256;DHT22;26989;45.524;10.938;2023-08-12T01:41:30;20.70;99.90
41256;DHT22;26989;45.524;10.938;2023-08-12T01:43:57;20.70;99.90
41256;DHT22;26989;45.524;10.938;2023-08-12T01:46:24;20.70;99.90
41256;DHT22;26989;45.524;10.938;2023-08-12T01:48:51;20.60;99.90
41256;DHT22;26989;45.524;10.938;2023-08-12T01:51:18;20.50;99.90
41256;DHT22;26989;45.524;10.938;2023-08-12T01:53:45;20.50;99.90
41256;DHT22;26989;45.524;10.938;2023-08-12T01:56:12;20.40;99.90
41256;DHT22;26989;45.524;10.938;2023-08-12T01:58:39;20.40;99.90
41256;DHT22;26989;45.524;10.938;2023-08-12T02:01:06;20.40;99.90
41256;DHT22;26989;45.524;10.938;2023-08-12T02:03:33;20.40;99.90
41256;DHT22;26989;45.524;10.938;2023-08-12T02:06:00;20.40;99.90
41256;DHT22;26989;45.524;10.938;2023-08-12T02:08:26;20.30;99.90
41256;DHT22;26989;45.524;10.938;2023-08-12T02:10:53;20.30;99.90
41256;DHT22;26989;45.524;10.938;2023-08-12T02:13:20;20.30;99.90
41256;DHT22;26989;45.524;10.938;2023-08-12T02:15:47;20.30;99.90
41256;DHT22;26989;45.524;10.938;2023-08-12T02:18:14;20.20;99.90
41256;DHT22;26989;45.524;10.938;2023-08-12T02:20:41;20.10;99.90
41256;DHT22;26989;45.524;10.938;2023-08-12T02:23:08;20.20;99.90
41256;DHT22;26989;45.524;10.938;2023-08-12T02:25:35;20.00;99.90
41256;DHT22;26989;45.524;10.938;2023-08-12T02:28:02;19.90;99.90
41256;DHT22;26989;45.524;10.938;2023-08-12T02:30:29;19.90;99.90
41256;DHT22;26989;45.524;10.938;2023-08-12T02:32:57;19.90;99.90
41256;DHT22;26989;45.524;10.938;2023-08-12T02:35:24;19.90;99.90
41256;DHT22;26989;45.524;10.938;2023-08-12T02:37:51;19.90;99.90
41256;DHT22;26989;45.524;10.938;2023-08-12T02:40:18;19.90;99.90
41256;DHT22;26989;45.524;10.938;2023-08-12T02:42:45;19.90;99.90
41256;DHT22;26989;45.524;10.938;2023-08-12T02:45:11;19.90;99.90
41256;DHT22;26989;45.524;10.938;2023-08-12T02:47:38;20.00;99.90
41256;DHT22;26989;45.524;10.938;2023-08-12T02:50:06;19.90;99.90
41256;DHT22;26989;45.524;10.938;2023-08-12T02:52:34;19.90;99.90
41256;DHT22;26989;45.524;10.938;2023-08-12T02:55:01;19.90;99.90
41256;DHT22;26989;45.524;10.938;2023-08-12T02:57:28;19.90;99.90
41256;DHT22;26989;45.524;10.938;2023-08-12T02:59:55;19.90;99.90
41256;DHT22;26989;45.524;10.938;2023-08-12T03:02:22;19.90;99.90
41256;DHT22;26989;45.524;10.938;2023-08-12T03:04:49;19.90;99.90
41256;DHT22;26989;45.524;10.938;2023-08-12T03:07:16;19.90;99.90
41256;DHT22;26989;45.524;10.938;2023-08-12T03:09:42;19.90;99.90
41256;DHT22;26989;45.524;10.938;2023-08-12T03:12:09;19.90;99.90
41256;DHT22;26989;45.524;10.938;2023-08-12T03:14:36;20.00;99.90
41256;DHT22;26989;45.524;10.938;2023-08-12T03:17:03;20.00;99.90
41256;DHT22;26989;45.524;10.938;2023-08-12T03:19:30;20.00;99.90
41256;DHT22;26989;45.524;10.938;2023-08-12T03:21:57;20.00;99.90
41256;DHT22;26989;45.524;10.938;2023-08-12T03:24:24;20.10;99.90
41256;DHT22;26989;45.524;10.938;2023-08-12T03:26:51;20.20;99.90
41256;DHT22;26989;45.524;10.938;2023-08-12T03:29:18;20.10;99.90
41256;DHT22;26989;45.524;10.938;2023-08-12T03:31:45;20.10;99.90
41256;DHT22;26989;45.524;10.938;2023-08-12T03:34:11;20.00;99.90
41256;DHT22;26989;45.524;10.938;2023-08-12T03:36:38;20.10;99.90
41256;DHT22;26989;45.524;10.938;2023-08-12T03:39:05;20.00;99.90
41256;DHT22;26989;45.524;10.938;2023-08-12T03:41:32;19.90;99.90
41256;DHT22;26989;45.524;10.938;2023-08-12T03:43:59;19.90;99.90
41256;DHT22;26989;45.524;10.938;2023-08-12T03:46:26;19.90;99.90
41256;DHT22;26989;45.524;10.938;2023-08-12T03:48:53;20.00;99.90
41256;DHT22;26989;45.524;10.938;2023-08-12T03:51:20;20.00;99.90
41256;DHT22;26989;45.524;10.938;2023-08-12T03:53:47;20.00;99.90
41256;DHT22;26989;45.524;10.938;2023-08-12T03:56:14;20.00;99.90
41256;DHT22;26989;45.524;10.938;2023-08-12T03:58:43;20.10;99.90
41256;DHT22;26989;45.524;10.938;2023-08-12T04:01:09;20.10;99.90
41256;DHT22;26989;45.524;10.938;2023-08-12T04:03:37;20.10;99.90
41256;DHT22;26989;45.524;10.938;2023-08-12T04:06:04;20.10;99.90
41256;DHT22;26989;45.524;10.938;2023-08-12T04:08:30;20.20;99.90
41256;DHT22;26989;45.524;10.938;2023-08-12T04:10:59;20.30;99.90
41256;DHT22;26989;45.524;10.938;2023-08-12T04:13:26;20.40;99.90
41256;DHT22;26989;45.524;10.938;2023-08-12T04:15:53;20.40;99.90
41256;DHT22;26989;45.524;10.938;2023-08-12T04:18:20;20.30;99.90
41256;DHT22;26989;45.524;10.938;2023-08-12T04:20:49;20.20;99.90
41256;DHT22;26989;45.524;10.938;2023-08-12T04:23:16;20.20;99.90
41256;DHT22;26989;45.524;10.938;2023-08-12T04:25:44;20.30;99.90
41256;DHT22;26989;45.524;10.938;2023-08-12T04:28:12;20.20;99.90
41256;DHT22;26989;45.524;10.938;2023-08-12T04:30:47;20.20;99.90
41256;DHT22;26989;45.524;10.938;2023-08-12T04:33:14;20.30;99.90
41256;DHT22;26989;45.524;10.938;2023-08-12T04:35:41;20.40;99.90
41256;DHT22;26989;45.524;10.938;2023-08-12T04:38:08;20.50;99.90
41256;DHT22;26989;45.524;10.938;2023-08-12T04:40:38;20.50;99.90
41256;DHT22;26989;45.524;10.938;2023-08-12T04:43:05;20.50;99.90
41256;DHT22;26989;45.524;10.938;2023-08-12T04:45:32;20.40;99.90
41256;DHT22;26989;45.524;10.938;2023-08-12T04:48:00;20.30;99.90
41256;DHT22;26989;45.524;10.938;2023-08-12T04:50:31;20.30;99.90
41256;DHT22;26989;45.524;10.938;2023-08-12T04:52:58;20.40;99.90
41256;DHT22;26989;45.524;10.938;2023-08-12T04:55:25;20.40;99.90
41256;DHT22;26989;45.524;10.938;2023-08-12T04:57:52;20.40;99.90
41256;DHT22;26989;45.524;10.938;2023-08-12T05:00:20;20.50;99.90
41256;DHT22;26989;45.524;10.938;2023-08-12T05:02:47;20.50;99.90
41256;DHT22;26989;45.524;10.938;2023-08-12T05:05:14;20.60;99.90
41256;DHT22;26989;45.524;10.938;2023-08-12T05:07:41;20.50;99.90
41256;DHT22;26989;45.524;10.938;2023-08-12T05:10:09;21.60;99.90
41256;DHT22;26989;45.524;10.938;2023-08-12T05:12:36;22.70;99.90
41256;DHT22;26989;45.524;10.938;2023-08-12T05:15:03;23.10;99.90
41256;DHT22;26989;45.524;10.938;2023-08-12T05:17:29;23.10;99.90
41256;DHT22;26989;45.524;10.938;2023-08-12T05:19:57;22.90;99.90
41256;DHT22;26989;45.524;10.938;2023-08-12T05:22:23;23.10;99.90
41256;DHT22;26989;45.524;10.938;2023-08-12T05:24:50;24.10;99.90
41256;DHT22;26989;45.524;10.938;2023-08-12T05:27:17;24.60;99.90
41256;DHT22;26989;45.524;10.938;2023-08-12T05:29:44;24.50;99.90
41256;DHT22;26989;45.524;10.938;2023-08-12T05:32:11;24.50;99.90
41256;DHT22;26989;45.524;10.938;2023-08-12T05:34:38;25.00;99.90
41256;DHT22;26989;45.524;10.938;2023-08-12T05:37:05;25.20;99.90
41256;DHT22;26989;45.524;10.938;2023-08-12T05:39:32;25.40;99.90
41256;DHT22;26989;45.524;10.938;2023-08-12T05:41:59;25.80;99.20
41256;DHT22;26989;45.524;10.938;2023-08-12T05:44:26;26.50;98.90
41256;DHT22;26989;45.524;10.938;2023-08-12T05:46:53;26.30;98.70
41256;DHT22;26989;45.524;10.938;2023-08-12T05:49:20;26.00;98.70
41256;DHT22;26989;45.524;10.938;2023-08-12T05:51:47;24.90;99.90
41256;DHT22;26989;45.524;10.938;2023-08-12T05:54:14;26.00;99.50
41256;DHT22;26989;45.524;10.938;2023-08-12T05:56:41;25.70;99.00
41256;DHT22;26989;45.524;10.938;2023-08-12T05:59:08;26.50;98.10
41256;DHT22;26989;45.524;10.938;2023-08-12T06:01:35;26.80;97.70
41256;DHT22;26989;45.524;10.938;2023-08-12T06:04:02;26.90;98.00
41256;DHT22;26989;45.524;10.938;2023-08-12T06:06:29;28.20;96.50
41256;DHT22;26989;45.524;10.938;2023-08-12T06:08:56;29.10;96.10
41256;DHT22;26989;45.524;10.938;2023-08-12T06:11:22;28.20;96.60
41256;DHT22;26989;45.524;10.938;2023-08-12T06:13:49;27.70;96.90
41256;DHT22;26989;45.524;10.938;2023-08-12T06:16:16;28.70;96.80
41256;DHT22;26989;45.524;10.938;2023-08-12T06:18:43;29.10;95.60
41256;DHT22;26989;45.524;10.938;2023-08-12T06:21:10;29.00;95.90
41256;DHT22;26989;45.524;10.938;2023-08-12T06:23:37;28.70;95.20
41256;DHT22;26989;45.524;10.938;2023-08-12T06:26:04;29.60;95.00
41256;DHT22;26989;45.524;10.938;2023-08-12T06:28:31;29.40;95.30
41256;DHT22;26989;45.524;10.938;2023-08-12T06:30:58;31.50;94.30
41256;DHT22;26989;45.524;10.938;2023-08-12T06:33:25;31.60;94.00
41256;DHT22;26989;45.524;10.938;2023-08-12T06:35:52;31.90;93.70
41256;DHT22;26989;45.524;10.938;2023-08-12T06:38:19;31.40;93.70
41256;DHT22;26989;45.524;10.938;2023-08-12T06:40:47;31.40;93.40
41256;DHT22;26989;45.524;10.938;2023-08-12T06:43:14;31.50;93.70
41256;DHT22;26989;45.524;10.938;2023-08-12T06:45:41;31.60;93.50
41256;DHT22;26989;45.524;10.938;2023-08-12T06:48:07;31.70;93.30
41256;DHT22;26989;45.524;10.938;2023-08-12T06:50:34;31.50;93.40
41256;DHT22;26989;45.524;10.938;2023-08-12T06:53:01;31.10;93.20
41256;DHT22;26989;45.524;10.938;2023-08-12T06:55:28;31.30;93.30
41256;DHT22;26989;45.524;10.938;2023-08-12T06:57:55;31.00;93.20
41256;DHT22;26989;45.524;10.938;2023-08-12T07:00:22;28.70;93.40
41256;DHT22;26989;45.524;10.938;2023-08-12T07:02:49;28.30;93.70
41256;DHT22;26989;45.524;10.938;2023-08-12T07:05:16;28.20;92.40
41256;DHT22;26989;45.524;10.938;2023-08-12T07:07:43;28.00;92.70
41256;DHT22;26989;45.524;10.938;2023-08-12T07:10:10;28.00;92.30
41256;DHT22;26989;45.524;10.938;2023-08-12T07:12:37;27.60;93.50
41256;DHT22;26989;45.524;10.938;2023-08-12T07:15:04;27.30;94.00
41256;DHT22;26989;45.524;10.938;2023-08-12T07:17:31;27.50;94.00
41256;DHT22;26989;45.524;10.938;2023-08-12T07:19:58;27.60;94.20
41256;DHT22;26989;45.524;10.938;2023-08-12T07:22:25;27.70;94.10
41256;DHT22;26989;45.524;10.938;2023-08-12T07:24:52;27.80;94.30
41256;DHT22;26989;45.524;10.938;2023-08-12T07:27:19;27.90;94.20
41256;DHT22;26989;45.524;10.938;2023-08-12T07:29:46;27.80;94.20
41256;DHT22;26989;45.524;10.938;2023-08-12T07:32:13;27.70;94.40
41256;DHT22;26989;45.524;10.938;2023-08-12T07:34:40;27.80;95.20
41256;DHT22;26989;45.524;10.938;2023-08-12T07:37:07;27.90;95.20
41256;DHT22;26989;45.524;10.938;2023-08-12T07:39:34;27.90;95.70
41256;DHT22;26989;45.524;10.938;2023-08-12T07:42:01;28.00;95.30
41256;DHT22;26989;45.524;10.938;2023-08-12T07:44:28;27.90;95.10
41256;DHT22;26989;45.524;10.938;2023-08-12T07:46:55;27.80;94.60
41256;DHT22;26989;45.524;10.938;2023-08-12T07:49:22;27.90;94.00
41256;DHT22;26989;45.524;10.938;2023-08-12T07:51:49;27.90;93.60
41256;DHT22;26989;45.524;10.938;2023-08-12T07:54:16;27.90;93.10
41256;DHT22;26989;45.524;10.938;2023-08-12T07:56:43;28.00;93.30
41256;DHT22;26989;45.524;10.938;2023-08-12T07:59:10;28.10;92.90
41256;DHT22;26989;45.524;10.938;2023-08-12T08:01:37;28.00;93.80
41256;DHT22;26989;45.524;10.938;2023-08-12T08:04:05;28.10;93.60
41256;DHT22;26989;45.524;10.938;2023-08-12T08:06:32;28.00;93.80
41256;DHT22;26989;45.524;10.938;2023-08-12T08:08:59;28.20;93.90
41256;DHT22;26989;45.524;10.938;2023-08-12T08:11:30;28.10;93.60
41256;DHT22;26989;45.524;10.938;2023-08-12T08:13:58;28.20;94.10
41256;DHT22;26989;45.524;10.938;2023-08-12T08:16:25;28.20;93.50
41256;DHT22;26989;45.524;10.938;2023-08-12T08:18:52;28.30;94.10
41256;DHT22;26989;45.524;10.938;2023-08-12T08:21:19;28.30;93.90
41256;DHT22;26989;45.524;10.938;2023-08-12T08:23:46;28.30;94.60
41256;DHT22;26989;45.524;10.938;2023-08-12T08:26:13;28.30;93.90
41256;DHT22;26989;45.524;10.938;2023-08-12T08:28:42;28.30;93.80
41256;DHT22;26989;45.524;10.938;2023-08-12T08:31:09;28.30;93.90
41256;DHT22;26989;45.524;10.938;2023-08-12T08:33:36;28.30;93.90
41256;DHT22;26989;45.524;10.938;2023-08-12T08:36:03;28.30;93.50
41256;DHT22;26989;45.524;10.938;2023-08-12T08:38:30;27.90;94.00
41256;DHT22;26989;45.524;10.938;2023-08-12T08:40:58;27.90;94.30
41256;DHT22;26989;45.524;10.938;2023-08-12T08:43:26;28.00;93.80
41256;DHT22;26989;45.524;10.938;2023-08-12T08:45:55;28.00;94.30
41256;DHT22;26989;45.524;10.938;2023-08-12T08:48:22;28.10;94.30
41256;DHT22;26989;45.524;10.938;2023-08-12T08:50:49;28.10;94.20
41256;DHT22;26989;45.524;10.938;2023-08-12T08:53:18;27.90;94.20
41256;DHT22;26989;45.524;10.938;2023-08-12T08:55:45;27.90;94.30
41256;DHT22;26989;45.524;10.938;2023-08-12T08:58:12;27.90;94.30
41256;DHT22;26989;45.524;10.938;2023-08-12T09:00:47;27.80;94.50
41256;DHT22;26989;45.524;10.938;2023-08-12T09:03:14;27.90;94.20
41256;DHT22;26989;45.524;10.938;2023-08-12T09:05:42;27.80;94.40
41256;DHT22;26989;45.524;10.938;2023-08-12T09:08:11;27.80;94.30
41256;DHT22;26989;45.524;10.938;2023-08-12T09:10:40;27.80;94.50
41256;DHT22;26989;45.524;10.938;2023-08-12T09:13:07;27.80;94.30
41256;DHT22;26989;45.524;10.938;2023-08-12T09:15:35;27.90;94.70
41256;DHT22;26989;45.524;10.938;2023-08-12T09:18:05;28.00;94.30
41256;DHT22;26989;45.524;10.938;2023-08-12T09:20:36;27.90;94.50
41256;DHT22;26989;45.524;10.938;2023-08-12T09:23:03;27.90;94.60
41256;DHT22;26989;45.524;10.938;2023-08-12T09:25:30;28.00;94.50
41256;DHT22;26989;45.524;10.938;2023-08-12T09:28:01;28.00;94.50
41256;DHT22;26989;45.524;10.938;2023-08-12T09:30:31;28.00;94.60
41256;DHT22;26989;45.524;10.938;2023-08-12T09:33:02;27.90;94.90
41256;DHT22;26989;45.524;10.938;2023-08-12T09:35:35;28.00;94.80
41256;DHT22;26989;45.524;10.938;2023-08-12T09:38:12;28.00;94.90
41256;DHT22;26989;45.524;10.938;2023-08-12T09:40:40;28.00;95.10
41256;DHT22;26989;45.524;10.938;2023-08-12T09:43:08;28.00;95.00
41256;DHT22;26989;45.524;10.938;2023-08-12T09:45:35;28.00;95.00
41256;DHT22;26989;45.524;10.938;2023-08-12T09:48:03;27.90;95.10
41256;DHT22;26989;45.524;10.938;2023-08-12T09:50:30;27.60;95.40
41256;DHT22;26989;45.524;10.938;2023-08-12T09:52:57;27.80;95.50
41256;DHT22;26989;45.524;10.938;2023-08-12T09:55:25;27.70;95.10
41256;DHT22;26989;45.524;10.938;2023-08-12T09:57:53;27.80;95.70
41256;DHT22;26989;45.524;10.938;2023-08-12T10:00:22;28.00;95.50
41256;DHT22;26989;45.524;10.938;2023-08-12T10:02:51;27.90;95.20
41256;DHT22;26989;45.524;10.938;2023-08-12T10:05:25;27.30;96.00
41256;DHT22;26989;45.524;10.938;2023-08-12T10:07:53;27.50;95.70
41256;DHT22;26989;45.524;10.938;2023-08-12T10:10:21;27.70;95.70
41256;DHT22;26989;45.524;10.938;2023-08-12T10:12:51;27.90;95.10
41256;DHT22;26989;45.524;10.938;2023-08-12T10:15:19;28.00;95.40
41256;DHT22;26989;45.524;10.938;2023-08-12T10:17:47;28.10;95.90
41256;DHT22;26989;45.524;10.938;2023-08-12T10:20:20;28.20;95.70
41256;DHT22;26989;45.524;10.938;2023-08-12T10:22:49;28.40;95.30
41256;DHT22;26989;45.524;10.938;2023-08-12T10:25:18;28.40;95.20
41256;DHT22;26989;45.524;10.938;2023-08-12T10:27:49;28.30;94.50
41256;DHT22;26989;45.524;10.938;2023-08-12T10:30:16;28.30;95.20
41256;DHT22;26989;45.524;10.938;2023-08-12T10:32:43;28.40;94.20
41256;DHT22;26989;45.524;10.938;2023-08-12T10:35:10;28.30;94.90
41256;DHT22;26989;45.524;10.938;2023-08-12T10:37:37;28.30;95.10
41256;DHT22;26989;45.524;10.938;2023-08-12T10:40:05;28.10;95.10
41256;DHT22;26989;45.524;10.938;2023-08-12T10:42:47;28.40;94.80
41256;DHT22;26989;45.524;10.938;2023-08-12T10:45:16;28.40;94.60
41256;DHT22;26989;45.524;10.938;2023-08-12T10:48:16;28.50;95.40
41256;DHT22;26989;45.524;10.938;2023-08-12T10:50:45;28.70;95.20
41256;DHT22;26989;45.524;10.938;2023-08-12T10:53:26;28.60;94.60
41256;DHT22;26989;45.524;10.938;2023-08-12T10:56:00;28.50;95.30
41256;DHT22;26989;45.524;10.938;2023-08-12T10:58:46;28.30;94.50
41256;DHT22;26989;45.524;10.938;2023-08-12T11:01:17;28.10;94.50
41256;DHT22;26989;45.524;10.938;2023-08-12T11:03:45;28.00;95.00
41256;DHT22;26989;45.524;10.938;2023-08-12T11:06:13;28.10;95.10
41256;DHT22;26989;45.524;10.938;2023-08-12T11:08:47;28.30;95.20
41256;DHT22;26989;45.524;10.938;2023-08-12T11:11:24;28.40;94.80
41256;DHT22;26989;45.524;10.938;2023-08-12T11:13:57;28.30;94.90
41256;DHT22;26989;45.524;10.938;2023-08-12T11:16:37;28.50;95.10
41256;DHT22;26989;45.524;10.938;2023-08-12T11:19:04;28.50;95.10
41256;DHT22;26989;45.524;10.938;2023-08-12T11:21:35;28.50;94.90
41256;DHT22;26989;45.524;10.938;2023-08-12T11:24:03;28.50;95.30
41256;DHT22;26989;45.524;10.938;2023-08-12T11:26:30;28.20;94.80
41256;DHT22;26989;45.524;10.938;2023-08-12T11:28:57;28.20;94.90
41256;DHT22;26989;45.524;10.938;2023-08-12T11:31:24;28.30;95.30
41256;DHT22;26989;45.524;10.938;2023-08-12T11:33:51;28.40;95.40
41256;DHT22;26989;45.524;10.938;2023-08-12T11:36:20;28.70;95.40
41256;DHT22;26989;45.524;10.938;2023-08-12T11:38:47;28.70;95.10
41256;DHT22;26989;45.524;10.938;2023-08-12T11:41:16;28.60;94.80
41256;DHT22;26989;45.524;10.938;2023-08-12T11:43:43;28.60;95.30
41256;DHT22;26989;45.524;10.938;2023-08-12T11:46:10;28.80;94.80
41256;DHT22;26989;45.524;10.938;2023-08-12T11:48:37;28.90;94.80
41256;DHT22;26989;45.524;10.938;2023-08-12T11:51:04;28.90;94.90
41256;DHT22;26989;45.524;10.938;2023-08-12T11:53:31;28.80;94.90
41256;DHT22;26989;45.524;10.938;2023-08-12T11:55:58;28.80;94.30
41256;DHT22;26989;45.524;10.938;2023-08-12T11:58:25;29.00;94.20
41256;DHT22;26989;45.524;10.938;2023-08-12T12:01:02;28.90;94.40
41256;DHT22;26989;45.524;10.938;2023-08-12T12:03:30;29.10;94.60
41256;DHT22;26989;45.524;10.938;2023-08-12T12:05:57;28.90;94.40
41256;DHT22;26989;45.524;10.938;2023-08-12T12:08:23;29.10;94.10
41256;DHT22;26989;45.524;10.938;2023-08-12T12:10:50;29.10;93.90
41256;DHT22;26989;45.524;10.938;2023-08-12T12:13:17;29.20;94.40
41256;DHT22;26989;45.524;10.938;2023-08-12T12:15:44;29.10;94.40
41256;DHT22;26989;45.524;10.938;2023-08-12T12:18:12;29.40;94.50
41256;DHT22;26989;45.524;10.938;2023-08-12T12:23:21;29.60;93.90
41256;DHT22;26989;45.524;10.938;2023-08-12T12:25:48;29.80;93.90
41256;DHT22;26989;45.524;10.938;2023-08-12T12:28:15;29.80;93.90
41256;DHT22;26989;45.524;10.938;2023-08-12T12:30:42;29.70;93.70
41256;DHT22;26989;45.524;10.938;2023-08-12T12:33:09;29.70;93.80
41256;DHT22;26989;45.524;10.938;2023-08-12T12:35:36;29.70;93.70
41256;DHT22;26989;45.524;10.938;2023-08-12T12:38:22;29.20;94.00
41256;DHT22;26989;45.524;10.938;2023-08-12T12:40:49;29.30;94.30
41256;DHT22;26989;45.524;10.938;2023-08-12T12:43:16;28.90;94.50
41256;DHT22;26989;45.524;10.938;2023-08-12T12:45:43;28.90;94.30
41256;DHT22;26989;45.524;10.938;2023-08-12T12:48:11;29.00;94.60
41256;DHT22;26989;45.524;10.938;2023-08-12T12:50:38;29.20;94.40
41256;DHT22;26989;45.524;10.938;2023-08-12T12:53:05;29.50;94.90
41256;DHT22;26989;45.524;10.938;2023-08-12T12:55:32;29.60;94.50
41256;DHT22;26989;45.524;10.938;2023-08-12T12:57:59;29.90;94.20
41256;DHT22;26989;45.524;10.938;2023-08-12T13:00:25;29.90;94.30
41256;DHT22;26989;45.524;10.938;2023-08-12T13:02:52;30.10;94.00
41256;DHT22;26989;45.524;10.938;2023-08-12T13:05:19;30.10;93.80
41256;DHT22;26989;45.524;10.938;2023-08-12T13:07:46;30.10;93.90
41256;DHT22;26989;45.524;10.938;2023-08-12T13:10:13;30.10;93.50
41256;DHT22;26989;45.524;10.938;2023-08-12T13:12:40;30.10;93.70
41256;DHT22;26989;45.524;10.938;2023-08-12T13:15:07;30.10;93.80
41256;DHT22;26989;45.524;10.938;2023-08-12T13:17:34;30.10;93.40
41256;DHT22;26989;45.524;10.938;2023-08-12T13:20:01;30.10;92.90
41256;DHT22;26989;45.524;10.938;2023-08-12T13:22:28;29.70;93.60
41256;DHT22;26989;45.524;10.938;2023-08-12T13:24:55;29.70;94.10
41256;DHT22;26989;45.524;10.938;2023-08-12T13:27:22;29.90;94.40
41256;DHT22;26989;45.524;10.938;2023-08-12T13:29:50;29.90;94.40
41256;DHT22;26989;45.524;10.938;2023-08-12T13:32:16;30.10;93.80
41256;DHT22;26989;45.524;10.938;2023-08-12T13:34:43;30.20;93.80
41256;DHT22;26989;45.524;10.938;2023-08-12T13:37:13;30.50;93.50
41256;DHT22;26989;45.524;10.938;2023-08-12T13:39:40;30.60;92.80
41256;DHT22;26989;45.524;10.938;2023-08-12T13:42:06;30.50;93.10
41256;DHT22;26989;45.524;10.938;2023-08-12T13:44:33;29.80;93.50
41256;DHT22;26989;45.524;10.938;2023-08-12T13:47:00;30.10;93.60
41256;DHT22;26989;45.524;10.938;2023-08-12T13:49:27;30.30;93.20
41256;DHT22;26989;45.524;10.938;2023-08-12T13:51:55;30.40;93.10
41256;DHT22;26989;45.524;10.938;2023-08-12T13:54:22;30.50;93.30
41256;DHT22;26989;45.524;10.938;2023-08-12T13:56:49;30.70;93.70
41256;DHT22;26989;45.524;10.938;2023-08-12T13:59:16;30.60;92.70
41256;DHT22;26989;45.524;10.938;2023-08-12T14:01:43;30.50;92.70
41256;DHT22;26989;45.524;10.938;2023-08-12T14:04:09;30.50;93.60
41256;DHT22;26989;45.524;10.938;2023-08-12T14:06:36;30.80;93.50
41256;DHT22;26989;45.524;10.938;2023-08-12T14:09:03;31.00;93.00
41256;DHT22;26989;45.524;10.938;2023-08-12T14:11:30;31.10;93.00
41256;DHT22;26989;45.524;10.938;2023-08-12T14:13:57;31.00;93.30
41256;DHT22;26989;45.524;10.938;2023-08-12T14:16:24;31.10;93.20
41256;DHT22;26989;45.524;10.938;2023-08-12T14:18:51;31.20;93.00
41256;DHT22;26989;45.524;10.938;2023-08-12T14:21:19;31.30;93.00
41256;DHT22;26989;45.524;10.938;2023-08-12T14:23:46;31.30;92.90
41256;DHT22;26989;45.524;10.938;2023-08-12T14:26:13;31.50;92.50
41256;DHT22;26989;45.524;10.938;2023-08-12T14:28:40;31.20;92.40
41256;DHT22;26989;45.524;10.938;2023-08-12T14:31:07;31.00;92.50
41256;DHT22;26989;45.524;10.938;2023-08-12T14:33:34;30.80;92.80
41256;DHT22;26989;45.524;10.938;2023-08-12T14:36:01;31.10;93.30
41256;DHT22;26989;45.524;10.938;2023-08-12T14:38:28;31.20;93.00
41256;DHT22;26989;45.524;10.938;2023-08-12T14:40:55;31.40;93.30
41256;DHT22;26989;45.524;10.938;2023-08-12T14:43:22;31.60;92.60
41256;DHT22;26989;45.524;10.938;2023-08-12T14:45:49;31.60;92.60
41256;DHT22;26989;45.524;10.938;2023-08-12T14:48:16;31.70;92.50
41256;DHT22;26989;45.524;10.938;2023-08-12T14:50:44;31.60;92.80
41256;DHT22;26989;45.524;10.938;2023-08-12T14:53:11;31.60;92.00
41256;DHT22;26989;45.524;10.938;2023-08-12T14:55:38;31.60;92.20
41256;DHT22;26989;45.524;10.938;2023-08-12T14:58:05;31.60;92.70
41256;DHT22;26989;45.524;10.938;2023-08-12T15:00:32;31.70;92.60
41256;DHT22;26989;45.524;10.938;2023-08-12T15:03:01;31.70;92.40
41256;DHT22;26989;45.524;10.938;2023-08-12T15:05:28;31.70;92.30
41256;DHT22;26989;45.524;10.938;2023-08-12T15:07:55;31.90;92.60
41256;DHT22;26989;45.524;10.938;2023-08-12T15:10:22;31.90;92.10
41256;DHT22;26989;45.524;10.938;2023-08-12T15:12:49;31.70;91.70
41256;DHT22;26989;45.524;10.938;2023-08-12T15:15:16;31.60;92.60
41256;DHT22;26989;45.524;10.938;2023-08-12T15:17:43;31.60;92.70
41256;DHT22;26989;45.524;10.938;2023-08-12T15:20:11;31.80;92.00
41256;DHT22;26989;45.524;10.938;2023-08-12T15:22:37;31.70;92.50